Time;durP1;ratioP1;P1;durP2;ratioP2;P2;SDS_P1;SDS_P2;PMS_P1;PMS_P2;Temp;Humidity;BMP_temperature;BMP_pressure;BME280_temperature;BME280_humidity;BME280_pressure;Samples;Min_cycle;Max_cycle;Signal;HPM_P1;HPM_P2
2021/03/11 00:02:24;;;;;;;21.08;8.77;;;;;;;0.58;43.22;101362.94;5021666;28;20025;-70
2021/03/11 00:04:49;;;;;;;18.20;9.48;;;;;;;0.58;43.58;101359.47;5021827;28;20033;-70
2021/03/11 00:07:15;;;;;;;27.67;10.45;;;;;;;0.49;44.00;101360.47;5021406;28;20025;-70
2021/03/11 00:09:41;;;;;;;22.98;11.00;;;;;;;0.39;45.34;101362.47;5021920;28;20040;-70
2021/03/11 00:12:08;;;;;;;22.17;10.32;;;;;;;0.28;45.80;101361.81;5022698;28;20025;-70
2021/03/11 00:14:36;;;;;;;20.00;10.40;;;;;;;0.28;46.27;101361.81;5023492;28;20030;-70
2021/03/11 00:17:05;;;;;;;27.25;10.98;;;;;;;0.24;46.78;101360.50;5022434;28;20025;-70
2021/03/11 00:19:32;;;;;;;26.63;11.35;;;;;;;0.28;46.04;101345.19;5022292;28;20037;-70
2021/03/11 00:21:57;;;;;;;24.27;12.02;;;;;;;0.36;46.20;101342.56;5016058;28;20033;-70
2021/03/11 00:24:23;;;;;;;26.75;11.38;;;;;;;0.38;46.66;101337.09;5023463;28;20660;-70
2021/03/11 00:26:48;;;;;;;21.23;11.40;;;;;;;0.43;45.86;101321.59;5023475;28;20029;-70
2021/03/11 00:29:14;;;;;;;26.77;12.32;;;;;;;0.38;46.54;101322.13;5022067;28;20033;-70
2021/03/11 00:31:39;;;;;;;22.85;11.02;;;;;;;0.42;46.46;101310.25;5022952;28;20048;-70
2021/03/11 00:34:05;;;;;;;26.55;13.15;;;;;;;0.44;46.28;101299.53;5021958;28;20037;-70
2021/03/11 00:36:30;;;;;;;24.05;11.85;;;;;;;0.50;46.52;101298.84;5022563;28;20060;-70
2021/03/11 00:38:56;;;;;;;26.23;11.77;;;;;;;0.47;46.83;101286.00;5021148;28;20843;-70
2021/03/11 00:41:21;;;;;;;21.90;10.93;;;;;;;0.40;46.98;101287.69;5020956;28;20021;-70
2021/03/11 00:43:47;;;;;;;27.02;12.90;;;;;;;0.39;48.58;101296.56;5019929;28;20036;-70
2021/03/11 00:46:13;;;;;;;25.48;12.98;;;;;;;0.33;49.69;101284.88;5020175;28;20102;-70
2021/03/11 00:48:38;;;;;;;24.88;11.85;;;;;;;0.36;48.74;101274.00;5019622;28;20041;-70
2021/03/11 00:51:04;;;;;;;28.83;13.90;;;;;;;0.37;48.97;101253.75;5021154;28;20032;-70
2021/03/11 00:53:29;;;;;;;30.40;14.48;;;;;;;0.41;48.47;101244.50;5020157;28;20121;-70
2021/03/11 00:55:54;;;;;;;26.23;13.32;;;;;;;0.41;49.60;101244.50;5022010;28;20038;-70
2021/03/11 00:58:20;;;;;;;29.83;13.68;;;;;;;0.43;49.20;101234.59;5021467;28;20025;-70
2021/03/11 01:00:46;;;;;;;28.23;13.90;;;;;;;0.41;49.76;101233.97;5019983;28;20029;-70
2021/03/11 01:03:13;;;;;;;30.65;14.07;;;;;;;0.25;51.16;101225.09;5020022;28;20029;-70
2021/03/11 01:05:38;;;;;;;28.48;13.25;;;;;;;0.15;52.49;101228.91;5021489;28;20030;-70
2021/03/11 01:08:04;;;;;;;28.15;13.88;;;;;;;0.18;52.10;101223.28;5020834;28;20018;-70
2021/03/11 01:10:29;;;;;;;35.38;14.90;;;;;;;0.15;53.57;101221.81;5019146;28;20067;-70
2021/03/11 01:12:55;;;;;;;31.55;15.13;;;;;;;0.20;53.14;101210.78;5020515;28;20036;-70
2021/03/11 01:15:20;;;;;;;30.48;13.40;;;;;;;0.15;53.16;101205.19;5002247;28;20041;-70
2021/03/11 01:17:46;;;;;;;34.10;15.05;;;;;;;0.33;51.81;101204.97;5020344;28;20052;-70
2021/03/11 01:20:16;;;;;;;32.88;14.27;;;;;;;0.41;52.44;101186.50;5020740;28;20021;-70
2021/03/11 01:22:41;;;;;;;29.70;13.65;;;;;;;0.40;53.16;101174.31;5018937;28;20033;-70
2021/03/11 01:25:08;;;;;;;31.58;14.48;;;;;;;0.48;51.93;101166.38;5022891;28;20025;-70
2021/03/11 01:27:33;;;;;;;39.00;17.83;;;;;;;0.48;52.57;101171.63;5016041;28;20036;-70
2021/03/11 01:30:00;;;;;;;37.45;16.20;;;;;;;0.43;54.51;101161.63;5020818;28;20774;-70
2021/03/11 01:32:25;;;;;;;27.52;14.70;;;;;;;0.50;54.06;101159.09;5017695;28;20030;-70
2021/03/11 01:34:50;;;;;;;36.03;16.13;;;;;;;0.64;53.14;101139.91;5022827;28;20029;-70
2021/03/11 01:37:16;;;;;;;34.72;15.70;;;;;;;0.61;54.51;101129.72;5020722;28;20075;-70
2021/03/11 01:39:41;;;;;;;34.47;18.13;;;;;;;0.59;55.10;101121.16;5021084;28;20770;-70
2021/03/11 01:42:07;;;;;;;27.00;14.00;;;;;;;0.52;56.44;101113.09;5020334;28;20025;-70
2021/03/11 01:44:32;;;;;;;39.13;19.15;;;;;;;0.60;54.90;101107.00;5021230;28;20075;-70
2021/03/11 01:46:58;;;;;;;38.92;19.27;;;;;;;0.62;54.94;101094.44;5006504;28;20235;-70
2021/03/11 01:49:24;;;;;;;36.70;16.88;;;;;;;0.63;56.22;101096.09;5019100;28;20044;-70
2021/03/11 01:51:50;;;;;;;39.28;18.40;;;;;;;0.59;57.11;101084.25;5019677;28;20031;-70
2021/03/11 01:54:18;;;;;;;44.05;19.25;;;;;;;0.70;55.86;101091.75;5019011;28;20387;-70
2021/03/11 01:56:44;;;;;;;38.67;19.70;;;;;;;0.80;55.82;101065.16;5020356;28;20037;-70
2021/03/11 01:59:10;;;;;;;37.50;18.35;;;;;;;0.89;55.23;101069.34;5020561;28;20025;-70
2021/03/11 02:01:35;;;;;;;40.20;19.88;;;;;;;0.93;55.15;101067.22;5019979;28;20102;-70
2021/03/11 02:04:01;;;;;;;41.33;18.80;;;;;;;0.92;55.90;101042.66;5021363;28;20056;-70
2021/03/11 02:06:26;;;;;;;42.22;18.85;;;;;;;0.93;55.74;101038.19;5017826;28;20021;-70
2021/03/11 02:08:52;;;;;;;38.42;19.95;;;;;;;0.88;56.53;101036.06;5020077;28;20128;-70
2021/03/11 02:11:22;;;;;;;48.05;21.75;;;;;;;0.90;57.74;101032.28;5009291;28;20056;-70
2021/03/11 02:14:16;;;;;;;42.20;19.30;;;;;;;0.86;58.21;101028.31;5019290;28;20052;-70
2021/03/11 02:17:03;;;;;;;42.17;19.30;;;;;;;0.91;58.54;101017.25;5008043;28;20044;-70
2021/03/11 02:19:50;;;;;;;38.83;21.33;;;;;;;0.89;58.55;101017.41;5018487;28;20040;-70
2021/03/11 02:22:53;;;;;;;41.58;20.60;;;;;;;0.92;58.70;101013.63;5019739;28;20021;-70
2021/03/11 02:25:28;;;;;;;46.75;20.42;;;;;;;0.96;58.64;101000.88;5018160;28;20112;-70
2021/03/11 02:28:23;;;;;;;39.45;20.67;;;;;;;0.98;58.86;100996.25;5020301;28;20540;-70
2021/03/11 02:30:49;;;;;;;41.08;20.90;;;;;;;1.05;58.93;100994.53;4985192;28;20056;-70
2021/03/11 02:33:15;;;;;;;43.17;20.65;;;;;;;1.11;58.38;100980.63;5018254;28;20029;-70
2021/03/11 02:35:42;;;;;;;42.83;20.00;;;;;;;1.12;58.21;100976.97;5017350;28;20033;-70
2021/03/11 02:38:11;;;;;;;42.65;20.17;;;;;;;1.17;58.22;100972.78;5019823;28;20025;-70
2021/03/11 02:40:38;;;;;;;47.78;20.75;;;;;;;1.07;59.80;100968.78;5018395;28;20061;-70
2021/03/11 02:43:10;;;;;;;46.60;21.00;;;;;;;1.12;60.54;100961.16;5019918;28;20052;-70
2021/03/11 02:45:36;;;;;;;38.10;18.50;;;;;;;1.18;60.01;100953.31;5019920;28;22021;-70
2021/03/11 02:48:05;;;;;;;48.50;21.85;;;;;;;1.24;59.06;100946.47;5021727;28;20101;-70
2021/03/11 02:50:32;;;;;;;40.63;20.50;;;;;;;1.25;59.10;100948.13;5018032;28;20038;-70
2021/03/11 02:52:59;;;;;;;40.92;20.77;;;;;;;1.30;59.99;100931.75;5019958;28;20029;-70
2021/03/11 02:55:25;;;;;;;41.45;22.05;;;;;;;1.31;60.15;100930.75;5020191;28;20109;-70
2021/03/11 02:57:52;;;;;;;45.25;21.63;;;;;;;1.32;59.74;100938.50;5020174;28;20033;-70
2021/03/11 03:00:19;;;;;;;42.38;21.58;;;;;;;1.38;59.72;100926.38;5016700;28;20021;-70
2021/03/11 03:02:45;;;;;;;39.05;19.67;;;;;;;1.36;60.26;100928.38;5018701;28;20026;-70
2021/03/11 03:05:15;;;;;;;42.97;20.85;;;;;;;1.37;60.39;100924.72;5020393;28;20029;-70
2021/03/11 03:07:44;;;;;;;45.95;22.58;;;;;;;1.37;60.52;100911.53;5018981;28;20028;-70
2021/03/11 03:10:11;;;;;;;41.50;19.13;;;;;;;1.40;61.51;100905.88;5019371;28;20125;-70
2021/03/11 03:12:37;;;;;;;45.90;22.55;;;;;;;1.46;61.40;100898.06;5016240;28;20740;-70
2021/03/11 03:15:06;;;;;;;43.42;21.10;;;;;;;1.49;61.19;100895.03;5021043;28;20033;-70
2021/03/11 03:17:35;;;;;;;41.60;21.42;;;;;;;1.55;61.65;100893.47;5019893;28;20037;-70
2021/03/11 03:20:07;;;;;;;43.85;20.60;;;;;;;1.57;61.44;100896.75;4996202;28;20115;-70
2021/03/11 03:22:34;;;;;;;44.35;19.67;;;;;;;1.64;60.96;100881.00;5018093;28;20647;-70
2021/03/11 03:24:59;;;;;;;41.78;20.63;;;;;;;1.62;61.55;100872.44;5018939;28;20049;-70
2021/03/11 03:27:25;;;;;;;44.60;21.13;;;;;;;1.67;61.69;100872.69;5019072;28;20017;-70
2021/03/11 03:29:50;;;;;;;42.03;21.77;;;;;;;1.63;62.64;100864.34;5020165;28;20519;-70
2021/03/11 03:32:16;;;;;;;44.05;21.23;;;;;;;1.70;61.79;100853.81;5020784;28;20021;-70
2021/03/11 03:34:41;;;;;;;38.55;19.13;;;;;;;1.76;61.62;100845.97;5019127;28;20034;-70
2021/03/11 03:37:07;;;;;;;35.70;17.90;;;;;;;1.76;62.63;100838.03;5024405;28;20533;-70
2021/03/11 03:39:33;;;;;;;41.42;21.08;;;;;;;1.82;62.05;100836.50;5022662;28;20021;-70
2021/03/11 03:41:59;;;;;;;40.80;20.35;;;;;;;1.83;62.36;100838.13;5024400;28;20099;-70
2021/03/11 03:44:29;;;;;;;33.10;18.52;;;;;;;1.76;62.97;100832.75;5023798;28;20033;-70
2021/03/11 03:46:56;;;;;;;42.97;20.35;;;;;;;1.82;62.57;100823.28;5025494;28;20029;-70
2021/03/11 03:49:23;;;;;;;41.30;18.75;;;;;;;1.88;62.05;100814.59;5021437;28;20116;-70
2021/03/11 03:51:53;;;;;;;47.05;21.63;;;;;;;1.88;62.15;100811.94;5023555;28;20034;-70
2021/03/11 03:54:25;;;;;;;37.22;17.63;;;;;;;1.86;62.54;100805.22;5012082;28;20029;-70
2021/03/11 03:56:54;;;;;;;38.50;19.38;;;;;;;1.88;62.38;100796.09;5007394;28;20033;-70
2021/03/11 03:59:27;;;;;;;42.40;21.05;;;;;;;1.82;62.77;100791.56;5022532;28;20029;-70
2021/03/11 04:01:56;;;;;;;39.95;19.45;;;;;;;1.85;63.08;100790.38;5024089;28;20640;-70
2021/03/11 04:04:24;;;;;;;44.38;22.23;;;;;;;1.90;62.92;100791.44;5021892;28;20053;-70
2021/03/11 04:06:49;;;;;;;40.53;20.05;;;;;;;1.94;63.14;100791.88;5005259;28;20255;-70
2021/03/11 04:09:15;;;;;;;41.78;20.38;;;;;;;1.85;63.52;100785.91;5020783;28;20074;-70
2021/03/11 04:11:45;;;;;;;41.70;20.75;;;;;;;1.75;64.55;100785.41;5020839;28;20036;-70
2021/03/11 04:14:11;;;;;;;32.17;16.30;;;;;;;1.68;65.20;100781.88;5000173;28;20030;-70
2021/03/11 04:16:39;;;;;;;39.08;20.48;;;;;;;1.84;63.82;100775.53;5022726;28;20052;-70
2021/03/11 04:19:05;;;;;;;46.65;20.67;;;;;;;1.93;63.36;100766.44;4998181;28;20025;-70
2021/03/11 04:21:31;;;;;;;37.22;18.52;;;;;;;1.76;64.76;100763.25;5021226;28;20037;-70
2021/03/11 04:23:58;;;;;;;43.55;20.85;;;;;;;1.77;64.63;100760.41;5007230;28;20116;-70
2021/03/11 04:26:23;;;;;;;38.83;18.35;;;;;;;1.86;64.48;100755.03;5022157;28;20033;-70
2021/03/11 04:28:49;;;;;;;39.83;18.65;;;;;;;1.89;63.99;100744.88;5021752;28;20118;-70
2021/03/11 04:31:15;;;;;;;48.25;22.40;;;;;;;1.95;63.81;100738.81;5022225;28;20119;-70
2021/03/11 04:33:43;;;;;;;40.53;20.23;;;;;;;1.97;64.11;100720.13;5021165;28;20112;-70
2021/03/11 04:36:09;;;;;;;45.33;21.67;;;;;;;1.90;65.01;100709.53;5021121;28;20021;-70
2021/03/11 04:38:35;;;;;;;47.92;22.48;;;;;;;1.94;64.45;100707.31;5018742;28;20028;-70
2021/03/11 04:41:01;;;;;;;46.28;21.50;;;;;;;1.98;64.82;100688.25;5021247;28;20026;-70
2021/03/11 04:43:26;;;;;;;37.30;19.00;;;;;;;1.85;66.54;100680.22;5022010;28;20479;-70
2021/03/11 04:45:53;;;;;;;39.45;19.63;;;;;;;1.93;66.28;100671.31;5020843;28;20079;-70
2021/03/11 04:48:19;;;;;;;49.60;24.90;;;;;;;1.89;67.60;100660.34;5021865;28;20037;-70
2021/03/11 04:50:45;;;;;;;40.67;19.20;;;;;;;1.86;68.15;100660.72;5021946;28;20033;-70
2021/03/11 04:53:11;;;;;;;42.17;20.77;;;;;;;1.80;69.39;100640.38;5000077;28;20034;-70
2021/03/11 04:55:37;;;;;;;41.95;18.95;;;;;;;1.89;67.99;100643.66;5021802;28;20387;-70
2021/03/11 04:58:03;;;;;;;40.13;18.67;;;;;;;1.73;70.05;100631.56;5020158;28;20510;-70
2021/03/11 05:00:30;;;;;;;45.83;21.42;;;;;;;1.75;70.25;100626.91;5003209;28;20058;-70
2021/03/11 05:02:58;;;;;;;44.30;21.88;;;;;;;1.73;70.83;100623.66;5020921;28;20083;-70
2021/03/11 05:05:34;;;;;;;44.50;23.02;;;;;;;1.71;71.86;100629.13;5023179;28;20064;-70
2021/03/11 05:08:00;;;;;;;41.03;20.15;;;;;;;1.81;70.63;100621.69;5019300;28;20074;-69
2021/03/11 05:10:25;;;;;;;49.58;22.45;;;;;;;1.70;72.12;100608.19;4998655;28;20491;-70
2021/03/11 05:12:51;;;;;;;48.72;23.50;;;;;;;1.68;72.31;100610.22;5021101;28;20053;-70
2021/03/11 05:15:17;;;;;;;48.63;23.35;;;;;;;1.71;72.01;100610.63;5020113;28;20021;-70
2021/03/11 05:17:42;;;;;;;51.53;23.38;;;;;;;1.66;72.41;100601.66;5021809;28;20043;-69
2021/03/11 05:20:08;;;;;;;50.15;25.92;;;;;;;1.62;73.57;100592.50;5021852;28;20061;-69
2021/03/11 05:22:34;;;;;;;50.50;22.73;;;;;;;1.62;73.55;100592.50;5019677;28;20397;-69
2021/03/11 05:24:59;;;;;;;50.58;24.27;;;;;;;1.62;73.63;100580.13;5020567;28;20032;-70
2021/03/11 05:27:25;;;;;;;49.97;22.98;;;;;;;1.58;74.33;100575.41;5020119;28;20086;-69
2021/03/11 05:29:50;;;;;;;46.88;22.58;;;;;;;1.62;73.97;100558.19;5020914;28;20110;-69
2021/03/11 05:32:16;;;;;;;56.35;22.83;;;;;;;1.64;73.96;100566.72;5020073;28;20034;-69
2021/03/11 05:34:41;;;;;;;49.85;23.60;;;;;;;1.64;74.21;100541.13;5018040;28;20029;-69
2021/03/11 05:37:07;;;;;;;52.20;25.08;;;;;;;1.56;75.33;100535.16;5020507;28;20029;-70
2021/03/11 05:39:33;;;;;;;56.15;24.52;;;;;;;1.52;76.59;100527.63;5001782;28;20052;-71
2021/03/11 05:42:00;;;;;;;51.53;24.40;;;;;;;1.51;76.43;100515.44;5020933;28;20107;-71
2021/03/11 05:44:26;;;;;;;52.67;23.92;;;;;;;1.54;76.35;100508.16;5017788;28;20025;-75
2021/03/11 05:46:52;;;;;;;48.38;21.48;;;;;;;1.53;76.38;100507.31;5023574;28;20031;-72
2021/03/11 05:49:18;;;;;;;45.08;20.40;;;;;;;1.56;76.88;100501.66;5021837;28;20040;-71
2021/03/11 05:51:45;;;;;;;53.60;22.60;;;;;;;1.57;77.07;100486.63;5017731;28;20021;-71
2021/03/11 05:54:11;;;;;;;46.88;21.83;;;;;;;1.57;77.29;100478.69;5016923;28;20029;-70
2021/03/11 05:56:37;;;;;;;58.28;24.48;;;;;;;1.63;77.13;100476.13;5016962;28;20044;-71
2021/03/11 05:59:04;;;;;;;52.55;23.65;;;;;;;1.56;78.02;100469.16;5019733;28;20487;-70
2021/03/11 06:01:31;;;;;;;52.58;23.17;;;;;;;1.65;77.72;100473.28;5016963;28;20037;-71
2021/03/11 06:04:00;;;;;;;51.70;23.27;;;;;;;1.55;78.70;100472.81;5017784;28;20565;-70
2021/03/11 06:06:26;;;;;;;55.92;23.63;;;;;;;1.54;78.90;100472.00;5021365;28;20029;-71
2021/03/11 06:08:55;;;;;;;50.47;23.20;;;;;;;1.67;78.25;100464.13;5020595;28;20059;-70
2021/03/11 06:11:22;;;;;;;41.33;20.45;;;;;;;1.71;77.97;100464.56;5015884;28;20037;-71
2021/03/11 06:13:48;;;;;;;48.25;21.58;;;;;;;1.70;78.41;100465.56;5007130;28;20802;-71
2021/03/11 06:16:20;;;;;;;49.83;22.48;;;;;;;1.68;78.96;100441.19;5004335;28;20029;-70
2021/03/11 06:18:48;;;;;;;51.80;22.80;;;;;;;1.75;77.88;100429.63;5018349;28;20339;-70
2021/03/11 06:21:13;;;;;;;47.80;21.92;;;;;;;1.75;79.02;100420.88;5004029;28;20026;-70
2021/03/11 06:23:39;;;;;;;48.40;23.00;;;;;;;1.82;78.54;100413.81;5019601;28;20044;-70
2021/03/11 06:26:06;;;;;;;57.83;25.08;;;;;;;1.79;78.88;100416.81;5020425;28;20029;-70
2021/03/11 06:28:44;;;;;;;56.90;23.65;;;;;;;1.78;79.95;100396.72;5020287;28;20088;-70
2021/03/11 06:31:26;;;;;;;57.35;25.38;;;;;;;1.84;79.78;100388.00;5006277;28;20388;-70
2021/03/11 06:34:02;;;;;;;55.00;24.15;;;;;;;1.84;79.57;100387.19;5020958;28;20136;-70
2021/03/11 06:36:31;;;;;;;49.10;20.90;;;;;;;1.92;78.76;100382.53;5021187;28;20510;-70
2021/03/11 06:38:58;;;;;;;58.42;24.25;;;;;;;1.97;78.57;100381.91;5022581;28;20098;-70
2021/03/11 06:41:23;;;;;;;51.30;20.65;;;;;;;1.94;79.08;100371.75;5020358;28;20454;-70
2021/03/11 06:43:56;;;;;;;52.55;22.05;;;;;;;1.94;78.93;100369.91;5021155;28;20151;-71
2021/03/11 06:46:23;;;;;;;52.33;22.67;;;;;;;1.92;79.73;100369.31;5021640;28;20028;-70
2021/03/11 06:48:49;;;;;;;59.00;25.65;;;;;;;1.97;79.46;100366.88;5019636;28;20156;-70
2021/03/11 06:51:20;;;;;;;48.65;23.70;;;;;;;1.94;80.18;100351.44;5012997;22;20160;-71
2021/03/11 06:54:04;;;;;;;55.10;22.70;;;;;;;1.97;80.20;100350.22;5022368;28;20041;-71
2021/03/11 06:56:30;;;;;;;52.20;23.20;;;;;;;2.01;79.52;100343.53;5024012;28;20112;-71
2021/03/11 06:58:57;;;;;;;54.75;24.52;;;;;;;1.98;80.02;100341.28;5018275;28;20116;-71
2021/03/11 07:01:24;;;;;;;46.78;20.73;;;;;;;2.03;80.06;100344.13;5017217;28;20112;-71
2021/03/11 07:03:50;;;;;;;45.40;18.95;;;;;;;2.01;79.93;100328.50;4999245;28;20713;-71
2021/03/11 07:06:27;;;;;;;58.10;23.85;;;;;;;1.92;81.44;100324.41;4996460;28;20037;-71
2021/03/11 07:08:53;;;;;;;50.72;22.98;;;;;;;1.99;80.70;100327.06;5007457;28;20130;-71
2021/03/11 07:11:19;;;;;;;47.60;19.73;;;;;;;2.11;79.92;100325.44;5008632;28;20026;-69
2021/03/11 07:13:46;;;;;;;43.88;20.25;;;;;;;2.16;79.49;100323.00;5009213;28;20129;-69
2021/03/11 07:16:19;;;;;;;53.88;23.95;;;;;;;2.15;79.76;100305.50;5005720;28;20037;-69
2021/03/11 07:18:45;;;;;;;54.05;23.73;;;;;;;2.10;80.66;100303.47;5008328;28;20037;-69
2021/03/11 07:21:12;;;;;;;49.78;22.50;;;;;;;2.21;79.55;100286.19;4989957;28;20561;-69
2021/03/11 07:23:48;;;;;;;44.83;20.35;;;;;;;2.23;80.08;100284.16;5006054;28;20025;-69
2021/03/11 07:26:14;;;;;;;52.50;23.67;;;;;;;2.36;79.12;100286.00;5007275;28;20021;-69
2021/03/11 07:28:39;;;;;;;51.78;21.55;;;;;;;2.27;80.17;100281.91;5005606;28;20667;-69
2021/03/11 07:31:06;;;;;;;53.78;22.27;;;;;;;2.29;80.49;100274.59;5007742;28;20037;-69
2021/03/11 07:33:37;;;;;;;55.25;23.33;;;;;;;2.18;81.40;100272.59;5007811;28;20052;-69
2021/03/11 07:36:05;;;;;;;49.45;20.42;;;;;;;2.14;81.54;100272.16;5008505;28;20034;-69
2021/03/11 07:38:33;;;;;;;40.00;18.70;;;;;;;2.10;81.93;100261.19;4991976;28;20113;-69
2021/03/11 07:41:01;;;;;;;55.70;23.88;;;;;;;2.23;81.45;100243.69;5007936;28;20022;-69
2021/03/11 07:43:28;;;;;;;51.00;20.80;;;;;;;2.22;81.38;100255.28;5005784;28;20069;-69
2021/03/11 07:45:55;;;;;;;42.78;19.48;;;;;;;2.25;81.68;100255.69;5004768;28;20087;-69
2021/03/11 07:48:21;;;;;;;46.97;20.73;;;;;;;2.03;83.06;100254.28;4991837;28;20034;-69
2021/03/11 07:50:47;;;;;;;49.55;22.70;;;;;;;2.08;82.86;100238.63;5004585;28;20038;-69
2021/03/11 07:53:12;;;;;;;45.20;20.98;;;;;;;2.02;83.67;100248.19;5008216;28;20029;-69
2021/03/11 07:55:38;;;;;;;60.40;24.67;;;;;;;1.98;84.54;100249.63;5006114;28;20036;-69
2021/03/11 07:58:10;;;;;;;56.88;25.80;;;;;;;2.02;84.47;100236.81;4986521;28;20053;-69
2021/03/11 08:00:36;;;;;;;58.20;23.52;;;;;;;2.01;84.98;100230.72;5005124;28;20052;-69
2021/03/11 08:03:13;;;;;;;50.22;23.05;;;;;;;2.03;85.25;100228.69;5004393;28;22052;-69
2021/03/11 08:05:38;;;;;;;60.33;23.92;;;;;;;2.06;85.33;100228.28;5007987;28;20049;-69
2021/03/11 08:08:14;;;;;;;59.03;24.60;;;;;;;2.11;85.34;100223.19;5008805;28;20391;-69
2021/03/11 08:10:41;;;;;;;57.30;23.17;;;;;;;2.13;85.14;100226.41;4990354;28;20037;-69
2021/03/11 08:13:38;;;;;;;55.40;21.55;;;;;;;2.06;86.20;100233.56;4988430;28;20025;-69
2021/03/11 08:16:10;;;;;;;56.00;23.27;;;;;;;2.07;86.63;100223.78;4984289;28;20488;-69
2021/03/11 08:18:35;;;;;;;45.40;22.38;;;;;;;2.12;86.50;100210.78;4977870;28;20684;-69
2021/03/11 08:21:01;;;;;;;53.47;21.20;;;;;;;2.16;86.09;100216.47;4988874;28;20029;-69
2021/03/11 08:23:28;;;;;;;54.65;22.85;;;;;;;2.13;86.86;100210.56;5004858;28;20026;-69
2021/03/11 08:25:53;;;;;;;56.22;24.23;;;;;;;2.21;86.88;100222.75;5005127;28;20106;-69
2021/03/11 08:28:19;;;;;;;60.08;25.90;;;;;;;2.26;86.49;100214.22;5005480;28;20030;-69
2021/03/11 08:30:47;;;;;;;37.08;17.45;;;;;;;2.07;87.62;100206.09;5007184;28;20057;-69
2021/03/11 08:33:33;;;;;;;44.40;23.70;;;;;;;2.03;88.68;100191.69;5007098;28;20606;-69
2021/03/11 08:36:00;;;;;;;54.38;22.98;;;;;;;2.10;88.68;100192.47;4983562;28;20456;-68
2021/03/11 08:38:30;;;;;;;46.30;20.90;;;;;;;2.14;88.73;100187.59;4993437;28;20112;-69
2021/03/11 08:41:00;;;;;;;50.00;21.95;;;;;;;2.19;89.43;100179.06;5005489;28;20029;-69
2021/03/11 08:43:35;;;;;;;39.58;17.88;;;;;;;2.15;89.10;100180.47;5007319;28;20104;-69
2021/03/11 08:46:01;;;;;;;59.45;23.88;;;;;;;2.22;89.20;100173.34;5009542;28;20034;-69
2021/03/11 08:48:41;;;;;;;53.05;22.77;;;;;;;2.29;89.03;100163.56;5008604;28;20022;-69
2021/03/11 08:51:30;;;;;;;64.03;26.73;;;;;;;2.24;89.38;100164.19;4999330;28;20026;-69
2021/03/11 08:53:59;;;;;;;48.03;21.75;;;;;;;2.15;89.38;100170.72;4993715;28;20124;-69
2021/03/11 08:56:25;;;;;;;53.03;21.65;;;;;;;2.27;89.47;100152.38;5006402;28;20080;-69
2021/03/11 08:58:54;;;;;;;57.55;24.80;;;;;;;2.37;89.13;100142.19;4990331;28;20046;-69
2021/03/11 09:01:42;;;;;;;57.53;24.25;;;;;;;2.26;89.20;100141.00;5006992;28;20092;-69
2021/03/11 09:04:33;;;;;;;53.25;22.90;;;;;;;2.31;89.81;100138.53;4977731;28;20468;-69
2021/03/11 09:07:32;;;;;;;44.22;20.90;;;;;;;2.44;89.11;100129.75;5001971;28;20048;-69
2021/03/11 09:09:58;;;;;;;54.20;23.77;;;;;;;2.52;89.11;100120.78;5002297;28;20495;-69
2021/03/11 09:12:35;;;;;;;54.45;22.02;;;;;;;2.44;89.14;100119.19;5007326;28;20104;-69
2021/03/11 09:15:02;;;;;;;63.92;24.67;;;;;;;2.55;88.77;100115.88;5007982;28;20034;-69
2021/03/11 09:17:30;;;;;;;48.10;20.83;;;;;;;2.50;88.77;100126.25;5008338;28;20584;-69
2021/03/11 09:20:04;;;;;;;51.88;21.77;;;;;;;2.58;88.67;100114.66;4987941;28;20064;-68
2021/03/11 09:22:33;;;;;;;44.53;19.40;;;;;;;2.54;89.16;100113.47;5006208;28;20036;-69
2021/03/11 09:25:11;;;;;;;40.28;17.92;;;;;;;2.54;89.22;100095.75;5006219;28;20032;-68
2021/03/11 09:27:40;;;;;;;47.25;19.73;;;;;;;2.70;88.64;100092.63;5005934;28;20032;-69
2021/03/11 09:30:07;;;;;;;52.60;21.10;;;;;;;2.74;88.81;100082.41;4985947;28;20022;-69
2021/03/11 09:32:35;;;;;;;40.90;18.40;;;;;;;2.71;88.69;100086.31;5007094;28;20732;-69
2021/03/11 09:35:10;;;;;;;36.40;17.00;;;;;;;2.73;88.99;100083.44;5006095;28;20049;-69
2021/03/11 09:37:53;;;;;;;45.63;19.17;;;;;;;2.67;89.25;100087.72;5006031;28;20583;-69
2021/03/11 09:40:39;;;;;;;34.20;15.98;;;;;;;2.69;89.36;100096.28;5007382;28;20029;-69
2021/03/11 09:43:05;;;;;;;31.85;15.15;;;;;;;2.78;89.50;100082.78;5007997;28;20508;-69
2021/03/11 09:45:39;;;;;;;32.67;16.75;;;;;;;2.74;89.65;100087.72;5007543;28;20109;-69
2021/03/11 09:48:10;;;;;;;41.17;17.73;;;;;;;2.85;89.56;100078.25;4980603;28;20037;-69
2021/03/11 09:50:37;;;;;;;30.38;14.20;;;;;;;2.94;89.50;100072.50;4982352;28;20042;-69
2021/03/11 09:53:02;;;;;;;37.38;17.92;;;;;;;2.93;89.79;100072.72;5001163;28;20033;-69
2021/03/11 09:55:29;;;;;;;34.53;16.35;;;;;;;2.96;89.47;100069.66;5006794;28;20041;-69
2021/03/11 09:57:55;;;;;;;24.15;13.90;;;;;;;2.97;89.43;100089.78;5006644;28;20108;-69
2021/03/11 10:00:21;;;;;;;31.88;15.98;;;;;;;3.08;89.35;100067.94;5005290;28;20124;-69
2021/03/11 10:02:47;;;;;;;34.33;14.85;;;;;;;3.19;89.15;100056.63;4985376;28;20048;-69
2021/03/11 10:05:13;;;;;;;28.60;14.18;;;;;;;3.12;89.18;100063.84;5007217;28;20454;-68
2021/03/11 10:07:39;;;;;;;35.10;14.98;;;;;;;3.20;89.33;100066.19;5002527;28;20113;-68
2021/03/11 10:10:13;;;;;;;29.92;15.57;;;;;;;3.19;89.63;100053.97;5001620;28;20033;-69
2021/03/11 10:12:42;;;;;;;32.58;16.30;;;;;;;3.35;89.50;100039.38;5002858;28;20026;-69
2021/03/11 10:15:10;;;;;;;29.00;14.23;;;;;;;3.34;88.25;100025.34;5008615;28;20052;-69
2021/03/11 10:17:36;;;;;;;32.70;16.83;;;;;;;3.42;88.75;100020.81;5004396;28;20756;-69
2021/03/11 10:20:40;;;;;;;20.33;11.63;;;;;;;3.42;88.63;100015.50;5005203;28;20042;-69
2021/03/11 10:23:20;;;;;;;21.58;11.88;;;;;;;3.36;88.52;100016.38;4887642;29;20031;-69
2021/03/11 10:26:06;;;;;;;26.35;12.50;;;;;;;3.49;88.42;100021.53;4906742;29;20359;-69
2021/03/11 10:28:31;;;;;;;;;;;;;;;3.51;88.52;100022.13;4974194;28;20046;-69
2021/03/11 10:30:56;;;;;;;24.70;12.15;;;;;;;3.45;89.02;100009.78;4987809;28;19971;-69
2021/03/11 10:33:22;;;;;;;35.15;16.65;;;;;;;3.61;88.89;100002.06;5001901;28;20118;-69
2021/03/11 10:35:49;;;;;;;20.10;11.00;;;;;;;3.52;88.30;100018.44;5001309;28;20029;-69
2021/03/11 10:38:18;;;;;;;21.60;11.90;;;;;;;3.52;88.91;99997.25;5003248;28;20014;-69
2021/03/11 10:40:44;;;;;;;31.48;15.30;;;;;;;3.55;89.05;99996.81;5002543;28;20045;-69
2021/03/11 10:43:29;;;;;;;25.58;12.77;;;;;;;3.55;88.62;100002.13;5005110;28;20030;-69
2021/03/11 10:45:54;;;;;;;34.47;16.30;;;;;;;3.68;88.66;99983.44;5008418;28;20021;-69
2021/03/11 10:48:20;;;;;;;23.02;13.18;;;;;;;3.66;88.56;99982.03;5003319;28;20443;-69
2021/03/11 10:50:48;;;;;;;31.38;15.40;;;;;;;3.72;88.66;99983.78;5008277;28;20049;-69
2021/03/11 10:53:14;;;;;;;27.63;14.27;;;;;;;3.60;88.80;99991.69;4988024;28;20022;-69
2021/03/11 10:55:43;;;;;;;22.13;10.85;;;;;;;3.58;89.16;99977.81;4989503;28;20037;-69
2021/03/11 10:58:26;;;;;;;28.73;13.52;;;;;;;3.54;89.48;99976.66;5009255;28;20029;-69
2021/03/11 11:01:09;;;;;;;25.38;13.85;;;;;;;3.60;89.46;99962.56;5009447;28;20125;-69
2021/03/11 11:03:36;;;;;;;23.88;13.82;;;;;;;3.63;89.50;99952.31;4991853;28;20061;-69
2021/03/11 11:06:04;;;;;;;31.38;15.05;;;;;;;3.72;89.31;99941.41;5005395;28;20034;-69
2021/03/11 11:08:30;;;;;;;24.15;12.30;;;;;;;3.91;88.76;99924.44;5009688;28;20030;-69
2021/03/11 11:10:55;;;;;;;25.92;13.13;;;;;;;3.99;88.33;99926.00;5009230;28;20069;-69
2021/03/11 11:13:21;;;;;;;24.27;12.55;;;;;;;4.01;87.72;99937.16;5008569;28;20491;-69
2021/03/11 11:15:46;;;;;;;28.25;13.70;;;;;;;4.06;87.92;99942.59;5010064;28;20037;-69
2021/03/11 11:18:12;;;;;;;24.90;13.20;;;;;;;4.04;88.06;99932.22;5003842;28;20022;-69
2021/03/11 11:20:38;;;;;;;27.20;14.60;;;;;;;4.11;88.29;99924.97;5008624;28;20491;-69
2021/03/11 11:23:04;;;;;;;31.50;15.13;;;;;;;4.05;88.48;99930.38;5004730;28;20022;-69
2021/03/11 11:25:30;;;;;;;22.20;11.68;;;;;;;4.08;88.26;99916.66;5003326;28;20056;-69
2021/03/11 11:27:57;;;;;;;23.17;11.90;;;;;;;4.22;88.17;99910.97;5007088;28;20615;-69